Time;durP1;ratioP1;P1;durP2;ratioP2;P2;SDS_P1;SDS_P2;PMS_P1;PMS_P2;Temp;Humidity;BMP_temperature;BMP_pressure;BME280_temperature;BME280_humidity;BME280_pressure;Samples;Min_cycle;Max_cycle;Signal;HPM_P1;HPM_P2
2024/04/04 00:00:56;;;;;;;;;;;;;;;13.77;81.81;99477.84;4170983;28;19909;-72
2024/04/04 00:02:56;;;;;;;;;;;;;;;13.66;80.76;99486.28;4173579;28;19909;-72
2024/04/04 00:05:00;;;;;;;;;;;;;;;13.69;81.04;99483.25;4169031;28;19909;-70
2024/04/04 00:07:01;;;;;;;;;;;;;;;13.73;80.90;99484.56;4164029;28;20324;-69
2024/04/04 00:09:01;;;;;;;;;;;;;;;13.66;80.57;99479.06;4163581;28;19931;-70
2024/04/04 00:11:11;;;;;;;;;;;;;;;13.67;79.89;99482.59;4162785;28;19917;-70
2024/04/04 00:13:11;;;;;;;;;;;;;;;13.69;79.81;99485.94;4163639;28;19924;-70
2024/04/04 00:15:11;;;;;;;;;;;;;;;13.68;79.71;99473.53;4163983;28;19999;-69
2024/04/04 00:17:12;;;;;;;;;;;;;;;13.87;78.87;99477.56;4163404;28;20566;-70
2024/04/04 00:19:12;;;;;;;;;;;;;;;14.12;77.90;99480.91;4161819;28;20435;-69
2024/04/04 00:21:13;;;;;;;;;;;;;;;14.10;77.94;99484.78;4163365;28;20349;-69
2024/04/04 00:23:13;;;;;;;;;;;;;;;14.23;77.12;99494.91;4163619;28;20373;-70
2024/04/04 00:25:13;;;;;;;;;;;;;;;14.20;77.63;99488.88;4163507;28;20361;-70
2024/04/04 00:27:13;;;;;;;;;;;;;;;14.23;76.90;99482.28;4163096;28;19936;-69
2024/04/04 00:29:14;;;;;;;;;;;;;;;14.05;77.52;99479.97;4162882;28;19909;-69
2024/04/04 00:31:14;;;;;;;;;;;;;;;13.97;78.04;99482.72;4163436;28;19916;-69
2024/04/04 00:33:14;;;;;;;;;;;;;;;14.10;77.42;99485.59;4162900;28;20425;-69
2024/04/04 00:35:15;;;;;;;;;;;;;;;13.98;77.82;99489.75;4162414;28;19909;-69
2024/04/04 00:37:16;;;;;;;;;;;;;;;13.90;77.83;99487.97;4163431;28;19908;-69
2024/04/04 00:39:16;;;;;;;;;;;;;;;13.98;77.39;99485.22;4162014;28;19909;-69
2024/04/04 00:41:16;;;;;;;;;;;;;;;14.07;76.81;99494.06;4163047;28;20353;-71
2024/04/04 00:43:17;;;;;;;;;;;;;;;14.17;76.64;99483.84;4163387;28;20628;-69
2024/04/04 00:45:17;;;;;;;;;;;;;;;14.17;76.71;99478.47;4163320;28;19909;-69
2024/04/04 00:47:18;;;;;;;;;;;;;;;13.96;76.78;99470.28;4163314;28;20007;-70
2024/04/04 00:49:19;;;;;;;;;;;;;;;14.18;76.12;99472.09;4162818;28;19913;-69
2024/04/04 00:51:20;;;;;;;;;;;;;;;14.05;76.46;99474.59;4161818;28;19912;-69
2024/04/04 00:53:23;;;;;;;;;;;;;;;14.11;76.08;99471.16;4163205;28;19913;-70
2024/04/04 00:55:23;;;;;;;;;;;;;;;14.14;76.08;99469.94;4163309;28;19943;-70
2024/04/04 00:57:24;;;;;;;;;;;;;;;14.07;76.11;99466.31;4163341;28;19909;-69
2024/04/04 00:59:24;;;;;;;;;;;;;;;14.11;75.76;99475.72;4162599;28;19909;-69
2024/04/04 01:01:24;;;;;;;;;;;;;;;14.07;75.42;99477.06;4161970;28;20416;-69
2024/04/04 01:03:25;;;;;;;;;;;;;;;14.00;75.93;99480.50;4162666;28;19909;-69
2024/04/04 01:05:25;;;;;;;;;;;;;;;14.09;75.26;99467.81;4161643;28;19913;-69
2024/04/04 01:07:27;;;;;;;;;;;;;;;14.16;75.13;99474.16;4162810;28;19917;-70
2024/04/04 01:09:27;;;;;;;;;;;;;;;14.20;74.70;99475.44;4162051;28;19924;-69
2024/04/04 01:11:27;;;;;;;;;;;;;;;14.34;74.56;99478.34;4162751;28;20058;-70
2024/04/04 01:13:28;;;;;;;;;;;;;;;14.25;74.57;99479.44;4162495;28;19962;-69
2024/04/04 01:15:28;;;;;;;;;;;;;;;14.25;74.59;99479.44;4162964;28;19913;-70
2024/04/04 01:17:28;;;;;;;;;;;;;;;14.33;74.10;99482.06;4162788;28;19912;-70
2024/04/04 01:19:29;;;;;;;;;;;;;;;14.38;74.47;99482.31;4162351;28;19909;-70
2024/04/04 01:21:29;;;;;;;;;;;;;;;14.28;74.22;99490.66;4162739;28;19960;-70
2024/04/04 01:23:29;;;;;;;;;;;;;;;14.35;74.51;99496.16;4163121;28;20048;-69
2024/04/04 01:25:30;;;;;;;;;;;;;;;14.42;74.13;99497.09;4162834;28;19916;-69
2024/04/04 01:27:30;;;;;;;;;;;;;;;14.39;74.21;99502.81;4163081;28;20426;-69
2024/04/04 01:29:30;;;;;;;;;;;;;;;14.27;74.20;99498.91;4162169;28;19909;-70
2024/04/04 01:31:31;;;;;;;;;;;;;;;14.24;74.29;99500.09;4162693;28;19909;-69
2024/04/04 01:33:31;;;;;;;;;;;;;;;14.18;74.64;99492.78;4162432;28;20132;-69
2024/04/04 01:35:31;;;;;;;;;;;;;;;14.23;74.40;99503.81;4162526;28;19932;-70
2024/04/04 01:37:32;;;;;;;;;;;;;;;14.25;74.24;99495.56;4162673;28;20443;-70
2024/04/04 01:39:32;;;;;;;;;;;;;;;14.31;74.07;99495.66;4162234;28;19912;-69
2024/04/04 01:41:32;;;;;;;;;;;;;;;14.30;73.96;99494.00;4162241;28;20390;-69
2024/04/04 01:43:33;;;;;;;;;;;;;;;14.35;73.78;99496.16;4148353;28;20423;-70
2024/04/04 01:45:33;;;;;;;;;;;;;;;14.38;73.90;99484.19;4165453;28;19951;-70
2024/04/04 01:47:33;;;;;;;;;;;;;;;14.34;73.72;99484.53;4181656;28;19912;-70
2024/04/04 01:49:34;;;;;;;;;;;;;;;14.42;73.58;99491.72;4179555;28;19915;-70
2024/04/04 01:51:34;;;;;;;;;;;;;;;14.29;73.90;99486.97;4165210;28;19912;-69
2024/04/04 01:53:35;;;;;;;;;;;;;;;14.43;73.55;99479.94;4165589;28;20357;-70
2024/04/04 01:55:35;;;;;;;;;;;;;;;14.42;73.44;99474.72;4166546;28;19952;-70
2024/04/04 01:57:36;;;;;;;;;;;;;;;14.33;73.98;99472.13;4166777;28;20646;-71
2024/04/04 01:59:36;;;;;;;;;;;;;;;14.22;73.97;99475.25;4166490;28;20274;-70
2024/04/04 02:01:36;;;;;;;;;;;;;;;14.15;73.98;99477.84;4167164;28;19952;-70
2024/04/04 02:03:37;;;;;;;;;;;;;;;14.13;73.98;99471.81;4167624;28;19940;-70
2024/04/04 02:05:37;;;;;;;;;;;;;;;14.28;73.43;99471.00;4166895;28;19966;-70
2024/04/04 02:07:37;;;;;;;;;;;;;;;14.41;73.10;99468.53;4166801;28;20437;-69
2024/04/04 02:09:37;;;;;;;;;;;;;;;14.45;72.66;99472.50;4167909;28;19984;-70
2024/04/04 02:11:40;;;;;;;;;;;;;;;14.51;72.69;99463.72;4167992;28;19936;-69
2024/04/04 02:13:40;;;;;;;;;;;;;;;14.50;72.60;99463.88;4165349;28;19908;-69
2024/04/04 02:15:41;;;;;;;;;;;;;;;14.51;72.25;99460.16;4164857;28;20308;-69
2024/04/04 02:17:41;;;;;;;;;;;;;;;14.58;71.79;99457.59;4165625;28;19935;-69
2024/04/04 02:19:42;;;;;;;;;;;;;;;14.57;71.62;99461.28;4164938;28;20417;-69
2024/04/04 02:21:42;;;;;;;;;;;;;;;14.59;71.86;99460.09;4165094;28;19920;-69
2024/04/04 02:23:42;;;;;;;;;;;;;;;14.61;71.56;99463.41;4165091;28;20384;-69
2024/04/04 02:25:43;;;;;;;;;;;;;;;14.49;71.35;99460.38;4164950;28;19909;-69
2024/04/04 02:27:43;;;;;;;;;;;;;;;14.45;72.19;99456.34;4165314;28;19940;-70
2024/04/04 02:29:44;;;;;;;;;;;;;;;14.50;71.66;99456.66;4164267;28;19913;-69
2024/04/04 02:31:45;;;;;;;;;;;;;;;14.56;71.42;99454.22;4164914;28;19909;-70
2024/04/04 02:33:45;;;;;;;;;;;;;;;14.56;71.22;99448.84;4164942;28;19916;-69
2024/04/04 02:35:52;;;;;;;;;;;;;;;14.49;71.22;99459.53;4164475;28;19909;-70
2024/04/04 02:37:52;;;;;;;;;;;;;;;14.56;71.09;99455.09;4164474;28;19920;-69
2024/04/04 02:39:53;;;;;;;;;;;;;;;14.50;71.43;99458.50;4164671;28;19909;-69
2024/04/04 02:41:53;;;;;;;;;;;;;;;14.49;70.88;99449.59;4164915;28;19935;-69
2024/04/04 02:43:54;;;;;;;;;;;;;;;14.50;70.83;99445.06;4164654;28;19955;-69
2024/04/04 02:46:01;;;;;;;;;;;;;;;14.56;70.52;99438.94;4164466;28;20350;-68
2024/04/04 02:48:02;;;;;;;;;;;;;;;14.48;70.36;99447.94;4164324;28;19944;-69
2024/04/04 02:50:03;;;;;;;;;;;;;;;14.51;70.08;99447.56;4163896;28;19909;-69
2024/04/04 02:52:03;;;;;;;;;;;;;;;14.43;70.78;99446.81;4164026;28;19921;-69
2024/04/04 02:54:04;;;;;;;;;;;;;;;14.39;70.98;99440.97;4164397;28;19996;-69
2024/04/04 02:56:05;;;;;;;;;;;;;;;14.34;70.78;99438.84;4164568;28;19909;-69
2024/04/04 02:58:06;;;;;;;;;;;;;;;14.39;70.79;99432.91;4164660;28;19944;-69
2024/04/04 03:00:08;;;;;;;;;;;;;;;14.28;70.55;99436.03;4164030;28;20412;-69
2024/04/04 03:02:09;;;;;;;;;;;;;;;14.28;70.53;99436.03;4164603;28;19999;-69
2024/04/04 03:04:09;;;;;;;;;;;;;;;14.35;70.75;99432.44;4164208;28;19905;-69
2024/04/04 03:06:10;;;;;;;;;;;;;;;14.45;70.03;99426.78;4164364;28;19909;-69
2024/04/04 03:08:10;;;;;;;;;;;;;;;14.24;70.66;99432.06;4164158;28;19971;-69
2024/04/04 03:10:11;;;;;;;;;;;;;;;14.32;70.18;99426.59;4163859;28;19909;-69
2024/04/04 03:12:12;;;;;;;;;;;;;;;14.18;70.93;99422.88;4164498;28;19929;-69
2024/04/04 03:14:12;;;;;;;;;;;;;;;14.20;70.83;99423.53;4164118;28;19963;-69
2024/04/04 03:16:13;;;;;;;;;;;;;;;14.11;70.77;99425.47;4168307;28;19912;-69
2024/04/04 03:18:13;;;;;;;;;;;;;;;14.20;71.13;99423.53;4176192;28;19920;-69
2024/04/04 03:20:13;;;;;;;;;;;;;;;14.32;70.16;99416.66;4174690;28;19909;-70
2024/04/04 03:22:14;;;;;;;;;;;;;;;14.08;69.94;99420.44;4175168;28;19995;-69
2024/04/04 03:24:15;;;;;;;;;;;;;;;14.16;70.15;99416.84;4174469;28;19913;-69
2024/04/04 03:26:15;;;;;;;;;;;;;;;14.12;70.00;99424.44;4166963;28;20424;-70
2024/04/04 03:28:15;;;;;;;;;;;;;;;14.08;69.83;99425.81;4164281;28;19909;-70
2024/04/04 03:30:16;;;;;;;;;;;;;;;14.07;69.87;99418.81;4162011;28;19916;-69
2024/04/04 03:32:16;;;;;;;;;;;;;;;14.24;69.40;99421.31;4162769;28;19939;-69
2024/04/04 03:34:16;;;;;;;;;;;;;;;14.12;70.12;99431.69;4164162;28;19909;-69
2024/04/04 03:36:17;;;;;;;;;;;;;;;14.04;70.16;99427.22;4163760;28;20342;-69
2024/04/04 03:38:17;;;;;;;;;;;;;;;14.04;70.00;99429.91;4164094;28;19909;-69
2024/04/04 03:40:17;;;;;;;;;;;;;;;14.13;69.29;99427.97;4165646;28;19913;-69
2024/04/04 03:42:18;;;;;;;;;;;;;;;14.13;69.53;99431.50;4166121;28;19916;-69
2024/04/04 03:44:18;;;;;;;;;;;;;;;14.09;69.11;99432.88;4164327;28;19982;-69
2024/04/04 03:46:18;;;;;;;;;;;;;;;14.20;68.95;99428.91;4163739;28;19928;-69
2024/04/04 03:48:19;;;;;;;;;;;;;;;14.15;68.85;99426.78;4163604;28;20387;-69
2024/04/04 03:50:19;;;;;;;;;;;;;;;14.33;68.54;99428.28;4163158;28;19967;-69
2024/04/04 03:52:20;;;;;;;;;;;;;;;14.23;68.60;99433.91;4163456;28;19945;-68
2024/04/04 03:54:20;;;;;;;;;;;;;;;14.16;68.75;99436.53;4163497;28;19915;-69
2024/04/04 03:56:20;;;;;;;;;;;;;;;14.34;68.35;99428.09;4163588;28;19917;-69
2024/04/04 03:58:21;;;;;;;;;;;;;;;14.02;69.11;99432.78;4163185;28;20486;-69
2024/04/04 04:00:21;;;;;;;;;;;;;;;13.99;69.04;99427.78;4162792;28;20277;-68
2024/04/04 04:02:22;;;;;;;;;;;;;;;14.13;68.60;99423.44;4165053;28;19913;-70
2024/04/04 04:04:23;;;;;;;;;;;;;;;13.98;68.85;99426.09;4166944;28;20411;-68
2024/04/04 04:06:24;;;;;;;;;;;;;;;14.04;68.49;99429.91;4164623;28;19921;-69
2024/04/04 04:08:24;;;;;;;;;;;;;;;14.17;67.94;99423.91;4162267;28;20281;-69
2024/04/04 04:10:28;;;;;;;;;;;;;;;14.12;68.46;99424.44;4161696;28;20012;-69
2024/04/04 04:12:28;;;;;;;;;;;;;;;14.02;68.64;99426.56;4163970;28;20010;-69
2024/04/04 04:14:28;;;;;;;;;;;;;;;14.06;68.14;99427.03;4163758;28;19913;-69
2024/04/04 04:16:29;;;;;;;;;;;;;;;13.92;68.63;99423.28;4162893;28;19909;-68
2024/04/04 04:18:29;;;;;;;;;;;;;;;14.03;68.29;99439.81;4163056;28;19908;-69
2024/04/04 04:22:49;;;;;;;;;;;;;;;14.13;68.15;99433.34;4163115;28;19916;-69
2024/04/04 04:24:49;;;;;;;;;;;;;;;14.08;68.41;99441.13;4163093;28;19944;-69
2024/04/04 04:26:49;;;;;;;;;;;;;;;14.06;68.39;99438.63;4162813;28;19908;-69
2024/04/04 04:28:50;;;;;;;;;;;;;;;14.12;68.34;99440.56;4162361;28;19909;-69
2024/04/04 04:30:52;;;;;;;;;;;;;;;14.07;68.39;99444.81;4162598;28;20500;-68
2024/04/04 04:32:52;;;;;;;;;;;;;;;14.08;68.24;99439.25;4162476;28;19917;-69
2024/04/04 04:34:52;;;;;;;;;;;;;;;14.10;68.29;99434.53;4162453;28;19964;-69
2024/04/04 04:36:54;;;;;;;;;;;;;;;14.03;68.50;99433.59;4162473;28;19944;-69
2024/04/04 04:38:54;;;;;;;;;;;;;;;13.84;68.94;99433.09;4161185;28;19983;-69
2024/04/04 04:41:02;;;;;;;;;;;;;;;14.12;68.15;99435.19;4162314;28;19909;-69
2024/04/04 04:43:03;;;;;;;;;;;;;;;14.16;67.81;99433.84;4162350;28;19917;-68
2024/04/04 04:45:04;;;;;;;;;;;;;;;14.22;67.63;99437.63;4162616;28;19909;-69
2024/04/04 04:47:04;;;;;;;;;;;;;;;14.05;68.30;99442.34;4162606;28;19909;-68
2024/04/04 04:49:04;;;;;;;;;;;;;;;14.11;68.00;99430.84;4161992;28;19909;-68
2024/04/04 04:51:05;;;;;;;;;;;;;;;14.24;67.46;99429.38;4162524;28;19956;-69
2024/04/04 04:53:05;;;;;;;;;;;;;;;14.20;67.43;99440.50;4162142;28;20384;-68
2024/04/04 04:55:06;;;;;;;;;;;;;;;14.20;67.72;99440.50;4162286;28;19956;-69
2024/04/04 04:57:06;;;;;;;;;;;;;;;14.29;67.10;99432.34;4162326;28;19917;-68
2024/04/04 04:59:06;;;;;;;;;;;;;;;14.22;67.08;99431.41;4161578;28;20350;-68
2024/04/04 05:01:07;;;;;;;;;;;;;;;14.26;66.90;99422.81;4161909;28;19913;-68
2024/04/04 05:03:08;;;;;;;;;;;;;;;14.30;67.14;99434.00;4162061;28;19913;-68
2024/04/04 05:05:12;;;;;;;;;;;;;;;14.24;66.96;99429.38;4161826;28;19915;-68
2024/04/04 05:07:12;;;;;;;;;;;;;;;14.33;66.93;99423.72;4161942;28;19923;-68
2024/04/04 05:09:15;;;;;;;;;;;;;;;14.30;66.68;99417.88;4160068;28;20360;-68
2024/04/04 05:11:16;;;;;;;;;;;;;;;14.30;66.73;99420.56;4162001;28;19909;-68
2024/04/04 05:13:16;;;;;;;;;;;;;;;14.46;66.31;99416.88;4161994;28;19920;-68
2024/04/04 05:15:16;;;;;;;;;;;;;;;14.36;66.60;99411.75;4162223;28;19928;-68
2024/04/04 05:17:17;;;;;;;;;;;;;;;14.54;65.52;99410.56;4161969;28;19944;-68
2024/04/04 05:19:17;;;;;;;;;;;;;;;14.48;65.64;99399.53;4162119;28;19909;-68
2024/04/04 05:21:17;;;;;;;;;;;;;;;14.57;65.17;99404.81;4165543;28;20401;-69
2024/04/04 05:23:18;;;;;;;;;;;;;;;14.60;65.35;99410.63;4165301;28;19962;-68
2024/04/04 05:25:18;;;;;;;;;;;;;;;14.62;65.57;99410.47;4163876;28;20377;-68
2024/04/04 05:27:19;;;;;;;;;;;;;;;14.68;65.26;99409.75;4165263;28;19909;-68
2024/04/04 05:29:19;;;;;;;;;;;;;;;14.70;65.24;99402.34;4164990;28;19916;-68
2024/04/04 05:31:19;;;;;;;;;;;;;;;14.67;65.14;99408.06;4165420;28;20011;-68
2024/04/04 05:33:20;;;;;;;;;;;;;;;14.68;65.26;99408.94;4165193;28;19922;-68
2024/04/04 05:35:20;;;;;;;;;;;;;;;14.73;65.35;99404.66;4163986;28;19917;-68
2024/04/04 05:37:21;;;;;;;;;;;;;;;14.73;65.29;99407.34;4165281;28;19941;-68
2024/04/04 05:39:21;;;;;;;;;;;;;;;14.64;65.37;99414.63;4163688;28;20426;-67
2024/04/04 05:41:21;;;;;;;;;;;;;;;14.61;65.42;99409.63;4164886;28;20017;-68
2024/04/04 05:43:22;;;;;;;;;;;;;;;14.68;65.35;99409.75;4165138;28;19917;-67
2024/04/04 05:45:22;;;;;;;;;;;;;;;14.68;65.06;99414.31;4164593;28;19920;-68
2024/04/04 05:47:22;;;;;;;;;;;;;;;14.80;65.20;99419.03;4171026;28;20266;-68
2024/04/04 05:49:23;;;;;;;;;;;;;;;14.61;65.61;99415.00;4170482;28;20303;-69
2024/04/04 05:51:24;;;;;;;;;;;;;;;14.85;64.83;99413.06;4167438;28;19909;-68
2024/04/04 05:53:24;;;;;;;;;;;;;;;14.97;64.71;99410.72;4164412;28;20377;-68
2024/04/04 05:55:24;;;;;;;;;;;;;;;14.74;65.09;99409.00;4164913;28;19909;-68
2024/04/04 05:57:24;;;;;;;;;;;;;;;14.77;64.89;99408.63;4164792;28;19917;-68
2024/04/04 05:59:25;;;;;;;;;;;;;;;14.77;65.02;99414.00;4164023;28;19913;-68
2024/04/04 06:01:25;;;;;;;;;;;;;;;14.79;65.29;99405.75;4164757;28;19909;-69
2024/04/04 06:03:26;;;;;;;;;;;;;;;14.79;64.91;99411.97;4164662;28;19915;-68
2024/04/04 06:05:26;;;;;;;;;;;;;;;14.77;65.40;99410.50;4164786;28;19913;-68
2024/04/04 06:07:27;;;;;;;;;;;;;;;14.70;65.60;99423.00;4164846;28;19921;-68
2024/04/04 06:09:27;;;;;;;;;;;;;;;14.88;65.09;99411.84;4163934;28;19916;-68
2024/04/04 06:11:27;;;;;;;;;;;;;;;15.00;64.66;99413.06;4164725;28;20015;-68
2024/04/04 06:13:28;;;;;;;;;;;;;;;15.01;64.13;99412.03;4164117;28;19959;-68
2024/04/04 06:15:28;;;;;;;;;;;;;;;15.14;64.43;99397.88;4164485;28;19935;-68
2024/04/04 06:17:29;;;;;;;;;;;;;;;15.12;64.22;99411.50;4164416;28;19909;-68
2024/04/04 06:19:29;;;;;;;;;;;;;;;15.34;63.46;99400.78;4163795;28;20137;-68
2024/04/04 06:21:29;;;;;;;;;;;;;;;15.35;63.47;99388.16;4164728;28;20360;-68
2024/04/04 06:23:30;;;;;;;;;;;;;;;15.46;62.92;99400.28;4164249;28;19909;-68
2024/04/04 06:25:30;;;;;;;;;;;;;;;15.39;63.50;99395.66;4164430;28;19909;-68
2024/04/04 06:27:31;;;;;;;;;;;;;;;15.57;63.09;99384.41;4164269;28;20564;-68
2024/04/04 06:29:31;;;;;;;;;;;;;;;15.36;63.27;99392.50;4164192;28;19920;-68
2024/04/04 06:31:31;;;;;;;;;;;;;;;15.47;63.10;99396.56;4162408;28;19913;-68
2024/04/04 06:33:32;;;;;;;;;;;;;;;15.49;63.06;99394.50;4162664;28;19964;-68
2024/04/04 06:35:32;;;;;;;;;;;;;;;15.41;63.20;99385.50;4164597;28;20509;-68
2024/04/04 06:37:32;;;;;;;;;;;;;;;15.41;62.44;99390.91;4167947;28;19913;-68
2024/04/04 06:39:34;;;;;;;;;;;;;;;15.36;62.94;99387.97;4167151;28;19913;-68
2024/04/04 06:41:34;;;;;;;;;;;;;;;15.43;62.95;99394.25;4167547;28;20023;-68
2024/04/04 06:43:34;;;;;;;;;;;;;;;15.35;63.08;99383.59;4167018;28;19909;-68
2024/04/04 06:45:34;;;;;;;;;;;;;;;15.55;62.97;99388.34;4168284;28;19909;-69
2024/04/04 06:47:41;;;;;;;;;;;;;;;15.63;63.14;99387.38;4164689;28;20023;-68
2024/04/04 06:49:41;;;;;;;;;;;;;;;15.63;62.45;99390.06;4166324;28;20003;-68
2024/04/04 06:51:41;;;;;;;;;;;;;;;15.71;62.92;99395.31;4167843;28;19909;-68
2024/04/04 06:53:41;;;;;;;;;;;;;;;15.70;62.44;99386.38;4168281;28;20000;-68
2024/04/04 06:55:42;;;;;;;;;;;;;;;15.77;62.13;99385.63;4166238;28;20392;-68
2024/04/04 06:57:42;;;;;;;;;;;;;;;15.75;62.60;99388.50;4167941;28;19936;-69
2024/04/04 06:59:42;;;;;;;;;;;;;;;15.68;62.19;99383.06;4166336;28;19968;-70
2024/04/04 07:01:44;;;;;;;;;;;;;;;15.65;62.00;99386.16;4166127;28;19966;-68
2024/04/04 07:03:44;;;;;;;;;;;;;;;15.82;61.55;99389.38;4163746;28;19913;-68
2024/04/04 07:05:44;;;;;;;;;;;;;;;15.89;61.54;99389.47;4163773;28;19909;-68
2024/04/04 07:07:45;;;;;;;;;;;;;;;15.75;61.70;99394.75;4163606;28;19917;-68
2024/04/04 07:09:45;;;;;;;;;;;;;;;16.07;60.85;99399.78;4163204;28;19909;-68
2024/04/04 07:11:45;;;;;;;;;;;;;;;16.19;60.43;99394.66;4163843;28;20526;-68
2024/04/04 07:13:46;;;;;;;;;;;;;;;16.33;60.13;99391.03;4163526;28;19916;-68
2024/04/04 07:15:46;;;;;;;;;;;;;;;16.51;59.47;99387.78;4163254;28;20004;-67
2024/04/04 07:17:48;;;;;;;;;;;;;;;16.48;59.45;99387.38;4163759;28;20435;-68
2024/04/04 07:19:52;;;;;;;;;;;;;;;16.53;59.44;99384.91;4163085;28;19912;-68
2024/04/04 07:21:52;;;;;;;;;;;;;;;16.75;58.41;99374.84;4163605;28;19913;-68
2024/04/04 07:23:52;;;;;;;;;;;;;;;16.77;57.97;99380.03;4163553;28;19912;-68
2024/04/04 07:25:54;;;;;;;;;;;;;;;16.72;58.52;99377.13;4163266;28;19915;-68
2024/04/04 07:27:54;;;;;;;;;;;;;;;16.81;58.22;99371.31;4163547;28;20315;-68
2024/04/04 07:29:55;;;;;;;;;;;;;;;16.60;58.17;99376.84;4162668;28;19956;-68
2024/04/04 07:31:56;;;;;;;;;;;;;;;16.50;59.00;99380.72;4163565;28;19909;-68
2024/04/04 07:33:56;;;;;;;;;;;;;;;16.62;58.37;99386.41;4163009;28;19941;-68
2024/04/04 07:35:56;;;;;;;;;;;;;;;16.56;58.77;99383.69;4163189;28;20388;-68
2024/04/04 07:37:57;;;;;;;;;;;;;;;16.65;58.80;99393.28;4163219;28;20505;-68
2024/04/04 07:39:58;;;;;;;;;;;;;;;16.46;59.29;99394.81;4162458;28;19909;-68
2024/04/04 07:41:59;;;;;;;;;;;;;;;16.41;59.58;99395.41;4160386;28;19980;-68
2024/04/04 07:44:01;;;;;;;;;;;;;;;16.59;59.43;99404.84;4162840;28;20007;-68
2024/04/04 07:46:01;;;;;;;;;;;;;;;16.32;59.76;99407.41;4163182;28;19909;-68
2024/04/04 07:48:02;;;;;;;;;;;;;;;16.46;59.49;99411.84;4163175;28;20567;-68
2024/04/04 07:50:07;;;;;;;;;;;;;;;16.43;60.06;99423.03;4162072;28;20388;-68
2024/04/04 07:52:07;;;;;;;;;;;;;;;16.09;61.70;99434.63;4162610;28;19983;-69
2024/04/04 07:54:07;;;;;;;;;;;;;;;16.00;62.73;99432.06;4163068;28;20350;-68
2024/04/04 07:56:08;;;;;;;;;;;;;;;15.97;63.09;99440.53;4163036;28;20442;-68
2024/04/04 07:58:08;;;;;;;;;;;;;;;15.70;64.35;99431.38;4162907;28;20397;-68
2024/04/04 08:00:10;;;;;;;;;;;;;;;15.66;64.29;99432.78;4162274;28;19909;-69
2024/04/04 08:02:11;;;;;;;;;;;;;;;15.81;64.14;99432.69;4161444;28;20459;-69
2024/04/04 08:04:12;;;;;;;;;;;;;;;15.99;64.44;99435.78;4162538;28;19913;-68
2024/04/04 08:06:13;;;;;;;;;;;;;;;15.64;64.54;99430.28;4162691;28;19975;-68
2024/04/04 08:08:13;;;;;;;;;;;;;;;15.61;64.66;99436.03;4162422;28;19928;-68
2024/04/04 08:10:19;;;;;;;;;;;;;;;15.71;64.16;99433.88;4161896;28;19944;-68
2024/04/04 08:12:19;;;;;;;;;;;;;;;15.71;64.33;99431.16;4162866;28;19956;-69
2024/04/04 08:14:20;;;;;;;;;;;;;;;15.66;64.22;99430.94;4162459;28;19921;-69
2024/04/04 08:16:20;;;;;;;;;;;;;;;15.64;64.28;99434.81;4162690;28;19913;-68
2024/04/04 08:18:21;;;;;;;;;;;;;;;15.94;63.60;99443.63;4163304;28;20317;-68
2024/04/04 08:20:22;;;;;;;;;;;;;;;15.80;63.17;99450.75;4160873;28;19963;-68
2024/04/04 08:22:23;;;;;;;;;;;;;;;15.85;62.87;99447.50;4162515;28;19920;-68
2024/04/04 08:24:24;;;;;;;;;;;;;;;15.88;62.75;99453.34;4162968;28;19909;-69
2024/04/04 08:26:25;;;;;;;;;;;;;;;15.85;62.68;99452.88;4163728;28;20388;-68
2024/04/04 08:28:26;;;;;;;;;;;;;;;16.17;61.80;99461.44;4163230;28;19909;-69
2024/04/04 08:30:26;;;;;;;;;;;;;;;16.16;61.81;99457.91;4161613;28;19916;-69
2024/04/04 08:32:28;;;;;;;;;;;;;;;15.91;62.14;99460.19;4163005;28;19917;-68
2024/04/04 08:34:30;;;;;;;;;;;;;;;16.23;61.11;99449.88;4163646;28;19909;-69
2024/04/04 08:36:31;;;;;;;;;;;;;;;16.13;60.96;99455.59;4163385;28;19944;-68
2024/04/04 08:38:31;;;;;;;;;;;;;;;16.05;60.17;99462.00;4162734;28;19915;-69
2024/04/04 08:40:36;;;;;;;;;;;;;;;16.17;60.03;99450.66;4162063;28;20361;-68
2024/04/04 08:42:36;;;;;;;;;;;;;;;16.00;60.29;99467.13;4161848;28;20491;-68
2024/04/04 08:44:38;;;;;;;;;;;;;;;16.30;59.93;99475.03;4162443;28;20015;-68
2024/04/04 08:46:39;;;;;;;;;;;;;;;16.20;59.92;99483.44;4162328;28;19909;-68
2024/04/04 08:48:40;;;;;;;;;;;;;;;16.00;60.71;99482.47;4161707;28;20040;-69
2024/04/04 08:50:47;;;;;;;;;;;;;;;16.15;61.13;99485.09;4162395;28;19916;-68
2024/04/04 08:52:48;;;;;;;;;;;;;;;15.85;62.07;99502.22;4162551;28;19916;-68
2024/04/04 08:54:48;;;;;;;;;;;;;;;15.78;62.99;99501.31;4162206;28;19915;-69
2024/04/04 08:56:49;;;;;;;;;;;;;;;15.68;63.63;99498.91;4162991;28;19909;-69
2024/04/04 08:58:49;;;;;;;;;;;;;;;15.50;65.02;99493.97;4162074;28;19920;-68
2024/04/04 09:00:50;;;;;;;;;;;;;;;15.47;65.80;99493.50;4162511;28;20349;-68
2024/04/04 09:02:50;;;;;;;;;;;;;;;15.46;66.28;99487.28;4163505;28;19913;-69
2024/04/04 09:04:51;;;;;;;;;;;;;;;15.38;66.12;99484.72;4163033;28;20325;-69
2024/04/04 09:06:52;;;;;;;;;;;;;;;15.25;66.41;99493.47;4162060;28;19955;-69
2024/04/04 09:08:55;;;;;;;;;;;;;;;15.15;66.59;99484.84;4161818;28;19909;-70
2024/04/04 09:10:59;;;;;;;;;;;;;;;15.24;67.87;99494.47;4162087;28;19909;-70
2024/04/04 09:13:04;;;;;;;;;;;;;;;15.21;67.73;99498.41;4160750;28;20446;-70
2024/04/04 09:15:04;;;;;;;;;;;;;;;15.30;68.06;99493.75;4162429;28;19993;-70
2024/04/04 09:17:05;;;;;;;;;;;;;;;15.16;68.18;99492.72;4162508;28;20284;-70
2024/04/04 09:19:12;;;;;;;;;;;;;;;15.10;68.29;99502.41;4163295;28;19909;-70
2024/04/04 09:21:12;;;;;;;;;;;;;;;14.88;69.07;99506.03;4163321;28;19952;-70
2024/04/04 09:23:12;;;;;;;;;;;;;;;14.97;68.90;99505.75;4163212;28;19966;-70
2024/04/04 09:25:15;;;;;;;;;;;;;;;14.94;69.15;99505.28;4162195;28;20007;-70
2024/04/04 09:27:18;;;;;;;;;;;;;;;14.97;69.82;99504.91;4161910;28;19913;-70
2024/04/04 09:29:20;;;;;;;;;;;;;;;15.03;69.57;99506.84;4161329;28;19916;-70
2024/04/04 09:31:22;;;;;;;;;;;;;;;15.06;69.15;99511.88;4161894;28;19967;-70
2024/04/04 09:33:23;;;;;;;;;;;;;;;15.20;69.41;99509.38;4161640;28;19917;-69
2024/04/04 09:35:24;;;;;;;;;;;;;;;14.94;69.86;99518.75;4162072;28;20392;-70
2024/04/04 09:37:26;;;;;;;;;;;;;;;15.04;70.12;99521.16;4161670;28;19909;-69
2024/04/04 09:39:28;;;;;;;;;;;;;;;15.16;69.80;99521.53;4161029;28;19919;-69
2024/04/04 09:41:29;;;;;;;;;;;;;;;15.00;70.87;99530.63;4161689;28;19963;-69
2024/04/04 09:43:30;;;;;;;;;;;;;;;14.85;71.57;99509.94;4160942;28;19908;-69
2024/04/04 09:45:31;;;;;;;;;;;;;;;14.96;72.17;99508.63;4161342;28;19909;-69
2024/04/04 09:47:32;;;;;;;;;;;;;;;14.96;72.04;99517.56;4161890;28;19959;-69
2024/04/04 09:49:32;;;;;;;;;;;;;;;14.97;72.39;99524.59;4161135;28;19948;-69
2024/04/04 09:51:33;;;;;;;;;;;;;;;14.89;72.06;99523.84;4161716;28;19987;-69
2024/04/04 09:53:36;;;;;;;;;;;;;;;15.08;72.02;99526.00;4161568;28;20015;-68
2024/04/04 09:55:36;;;;;;;;;;;;;;;15.10;72.25;99523.94;4161752;28;20000;-69
2024/04/04 09:57:38;;;;;;;;;;;;;;;14.89;72.15;99513.09;4161975;28;19998;-68
2024/04/04 09:59:38;;;;;;;;;;;;;;;15.10;71.74;99513.19;4163469;28;19919;-69
2024/04/04 10:01:38;;;;;;;;;;;;;;;15.09;71.89;99516.03;4163932;28;19955;-69
2024/04/04 10:03:46;;;;;;;;;;;;;;;15.01;72.25;99511.63;4164058;28;19963;-69
2024/04/04 10:05:46;;;;;;;;;;;;;;;15.13;72.27;99510.09;4164845;28;20391;-69
2024/04/04 10:07:48;;;;;;;;;;;;;;;15.09;72.23;99510.66;4167289;28;19917;-69
2024/04/04 10:09:48;;;;;;;;;;;;;;;15.04;72.29;99508.53;4163236;28;19909;-70
2024/04/04 10:11:49;;;;;;;;;;;;;;;14.99;73.00;99519.03;4164774;28;20483;-69
2024/04/04 10:13:51;;;;;;;;;;;;;;;15.04;72.74;99522.00;4164864;28;19940;-70
2024/04/04 10:15:52;;;;;;;;;;;;;;;15.02;73.02;99515.94;4164634;28;19999;-69
2024/04/04 10:17:55;;;;;;;;;;;;;;;14.93;73.13;99514.38;4164647;28;20020;-69
2024/04/04 10:19:55;;;;;;;;;;;;;;;14.91;73.26;99511.06;4164071;28;19956;-70
2024/04/04 10:21:56;;;;;;;;;;;;;;;14.98;72.72;99517.34;4164535;28;20493;-69
2024/04/04 10:23:59;;;;;;;;;;;;;;;14.96;73.27;99520.25;4163365;28;19908;-69
2024/04/04 10:26:07;;;;;;;;;;;;;;;14.84;73.82;99516.34;4164647;28;19909;-69
2024/04/04 10:28:07;;;;;;;;;;;;;;;14.86;73.50;99522.38;4164560;28;19913;-69
2024/04/04 10:30:08;;;;;;;;;;;;;;;14.78;74.30;99527.84;4163621;28;19913;-70
2024/04/04 10:32:09;;;;;;;;;;;;;;;14.91;74.08;99516.44;4164432;28;20564;-69